createdAt,value
2018-02-10T00:00:02.283Z,51.30
2018-02-10T00:00:33.829Z,54.90
2018-02-10T00:01:05.498Z,52.00
2018-02-10T00:01:37.123Z,58.17
2018-02-10T00:02:08.763Z,52.25
2018-02-10T00:02:40.375Z,52.40
2018-02-10T00:03:12.013Z,54.60
2018-02-10T00:03:43.637Z,58.08
2018-02-10T00:04:15.256Z,56.30
2018-02-10T00:04:46.883Z,54.03
2018-02-10T00:05:18.510Z,51.75
2018-02-10T00:05:50.129Z,54.83
2018-02-10T00:06:21.739Z,51.97
2018-02-10T00:06:53.387Z,54.35
2018-02-10T00:07:25.015Z,60.20
2018-02-10T00:07:56.637Z,55.20
2018-02-10T00:08:28.263Z,54.42
2018-02-10T00:08:59.874Z,53.90
2018-02-10T00:09:31.516Z,56.35
2018-02-10T00:10:03.165Z,55.25
2018-02-10T00:10:34.817Z,55.63
2018-02-10T00:11:06.441Z,58.47
2018-02-10T00:11:38.064Z,52.03
2018-02-10T00:12:09.683Z,57.10
2018-02-10T00:12:41.299Z,55.47
2018-02-10T00:13:12.915Z,56.28
2018-02-10T00:13:44.548Z,56.97
2018-02-10T00:14:16.245Z,57.67
2018-02-10T00:14:47.869Z,54.65
2018-02-10T00:15:19.495Z,54.72
2018-02-10T00:15:51.123Z,61.35
2018-02-10T00:16:22.749Z,58.25
2018-02-10T00:16:54.365Z,55.92
2018-02-10T00:17:25.999Z,53.10
2018-02-10T00:17:57.611Z,53.03
2018-02-10T00:18:29.233Z,54.20
2018-02-10T00:19:00.836Z,59.58
2018-02-10T00:19:32.457Z,58.65
2018-02-10T00:20:04.069Z,54.17
2018-02-10T00:20:35.725Z,55.10
2018-02-10T00:21:07.349Z,55.28
2018-02-10T00:21:38.968Z,49.47
2018-02-10T00:22:10.652Z,59.33
2018-02-10T00:22:42.364Z,64.22
2018-02-10T00:23:14.027Z,59.75
2018-02-10T00:23:45.673Z,57.03
2018-02-10T00:24:17.283Z,52.45
2018-02-10T00:24:48.905Z,58.58
2018-02-10T00:25:20.534Z,53.60
2018-02-10T00:25:52.154Z,63.80
2018-02-10T00:26:23.791Z,60.70
2018-02-10T00:26:55.398Z,57.83
2018-02-10T00:27:27.035Z,57.38
2018-02-10T00:27:58.650Z,59.35
2018-02-10T00:28:30.250Z,58.10
2018-02-10T00:29:01.887Z,52.83
2018-02-10T00:29:33.489Z,61.60
2018-02-10T00:30:05.123Z,57.80
2018-02-10T00:30:36.723Z,60.20
2018-02-10T00:31:08.315Z,53.55
2018-02-10T00:31:39.931Z,61.33
2018-02-10T00:32:11.642Z,57.80
2018-02-10T00:32:43.259Z,60.08
2018-02-10T00:33:14.881Z,56.25
2018-02-10T00:33:46.507Z,60.97
2018-02-10T00:34:18.123Z,61.72
2018-02-10T00:34:49.753Z,58.50
2018-02-10T00:35:21.427Z,58.13
2018-02-10T00:35:53.112Z,58.22
2018-02-10T00:36:24.743Z,63.28
2018-02-10T00:36:56.371Z,63.35
2018-02-10T00:37:27.993Z,65.28
2018-02-10T00:37:59.644Z,59.53
2018-02-10T00:38:31.241Z,62.60
2018-02-10T00:39:02.929Z,66.28
2018-02-10T00:39:34.554Z,58.55
2018-02-10T00:40:06.174Z,60.20
2018-02-10T00:40:37.811Z,59.63
2018-02-10T00:41:09.455Z,63.78
2018-02-10T00:41:41.081Z,60.92
2018-02-10T00:42:12.725Z,57.53
2018-02-10T00:42:44.325Z,64.80
2018-02-10T00:43:15.950Z,64.32
2018-02-10T00:43:47.641Z,61.37
2018-02-10T00:44:19.281Z,66.22
2018-02-10T00:44:50.916Z,56.33
2018-02-10T00:45:22.560Z,66.43
2018-02-10T00:45:54.171Z,60.88
2018-02-10T00:46:25.821Z,66.45
2018-02-10T00:46:57.458Z,64.40
2018-02-10T00:47:29.127Z,65.85
2018-02-10T00:48:00.740Z,64.55
2018-02-10T00:48:32.499Z,58.92
2018-02-10T00:49:04.109Z,71.32
2018-02-10T00:49:35.717Z,67.80
2018-02-10T00:50:07.353Z,62.83
2018-02-10T00:50:38.965Z,76.10
2018-02-10T00:51:10.561Z,66.03
2018-02-10T00:51:42.183Z,64.72
2018-02-10T00:52:13.801Z,60.97
2018-02-10T00:52:45.417Z,68.82
2018-02-10T00:53:17.045Z,65.32
2018-02-10T00:53:48.657Z,68.07
2018-02-10T00:54:20.304Z,70.70
2018-02-10T00:54:51.924Z,67.05
2018-02-10T00:55:23.528Z,63.55
2018-02-10T00:55:55.140Z,68.57
2018-02-10T00:56:26.748Z,71.10
2018-02-10T00:56:58.374Z,68.30
2018-02-10T00:57:30.015Z,68.80
2018-02-10T00:58:01.677Z,65.90
2018-02-10T00:58:33.311Z,70.82
2018-02-10T00:59:04.933Z,67.00
2018-02-10T00:59:36.543Z,72.87
2018-02-10T01:00:08.248Z,71.80
2018-02-10T01:00:39.961Z,63.28
2018-02-10T01:01:11.573Z,76.95
2018-02-10T01:01:43.208Z,70.30
2018-02-10T01:02:14.825Z,63.85
2018-02-10T01:02:46.434Z,66.15
2018-02-10T01:03:18.154Z,67.78
2018-02-10T01:03:49.754Z,70.07
2018-02-10T01:04:21.361Z,74.05
2018-02-10T01:04:52.984Z,65.90
2018-02-10T01:05:24.587Z,72.68
2018-02-10T01:05:56.220Z,75.93
2018-02-10T01:06:27.839Z,77.03
2018-02-10T01:06:59.493Z,69.85
2018-02-10T01:07:31.133Z,67.20
2018-02-10T01:08:02.811Z,70.90
2018-02-10T01:08:34.469Z,74.10
2018-02-10T01:09:06.095Z,76.37
2018-02-10T01:09:37.733Z,70.22
2018-02-10T01:10:09.360Z,71.93
2018-02-10T01:10:40.969Z,60.92
2018-02-10T01:11:12.587Z,70.82
2018-02-10T01:11:44.214Z,65.75
2018-02-10T01:12:15.841Z,69.00
2018-02-10T01:12:47.440Z,69.12
2018-02-10T01:13:19.081Z,73.05
2018-02-10T01:13:50.739Z,72.75
2018-02-10T01:14:22.377Z,69.78
2018-02-10T01:14:54.015Z,58.67
2018-02-10T01:15:25.625Z,73.68
2018-02-10T01:15:57.255Z,65.20
2018-02-10T01:16:28.870Z,61.72
2018-02-10T01:17:00.513Z,68.10
2018-02-10T01:17:32.141Z,75.80
2018-02-10T01:18:03.781Z,65.03
2018-02-10T01:18:35.410Z,68.75
2018-02-10T01:19:07.046Z,65.97
2018-02-10T01:19:38.653Z,64.57
2018-02-10T01:20:10.263Z,65.43
2018-02-10T01:20:41.855Z,65.90
2018-02-10T01:21:13.479Z,70.05
2018-02-10T01:21:45.097Z,64.07
2018-02-10T01:22:16.751Z,65.50
2018-02-10T01:22:48.368Z,64.95
2018-02-10T01:23:19.988Z,74.57
2018-02-10T01:23:51.620Z,66.95
2018-02-10T01:24:23.288Z,73.32
2018-02-10T01:24:54.905Z,65.45
2018-02-10T01:25:26.519Z,65.65
2018-02-10T01:25:58.138Z,73.50
2018-02-10T01:26:29.802Z,74.20
2018-02-10T01:27:01.429Z,69.93
2018-02-10T01:27:33.047Z,76.10
2018-02-10T01:28:04.661Z,79.72
2018-02-10T01:28:36.279Z,83.32
2018-02-10T01:29:07.880Z,68.53
2018-02-10T01:29:39.526Z,74.22
2018-02-10T01:30:11.144Z,81.68
2018-02-10T01:30:42.772Z,76.37
2018-02-10T01:31:14.383Z,80.53
2018-02-10T01:31:46.027Z,73.75
2018-02-10T01:32:17.640Z,76.78
2018-02-10T01:32:49.266Z,77.07
2018-02-10T01:33:20.891Z,70.75
2018-02-10T01:33:52.529Z,79.12
2018-02-10T01:34:24.138Z,74.32
2018-02-10T01:34:55.777Z,74.28
2018-02-10T01:35:27.373Z,75.45
2018-02-10T01:35:58.988Z,75.40
2018-02-10T01:36:30.621Z,74.70
2018-02-10T01:37:02.240Z,78.07
2018-02-10T01:37:33.858Z,74.80
2018-02-10T01:38:05.474Z,86.32
2018-02-10T01:38:37.101Z,75.40
2018-02-10T01:39:08.716Z,83.97
2018-02-10T01:39:40.315Z,72.78
2018-02-10T01:40:11.967Z,80.18
2018-02-10T01:40:43.594Z,78.75
2018-02-10T01:41:15.212Z,76.28
2018-02-10T01:41:46.891Z,67.40
2018-02-10T01:42:18.463Z,73.37
2018-02-10T01:42:50.096Z,75.60
2018-02-10T01:43:21.711Z,73.68
2018-02-10T01:43:53.338Z,76.07
2018-02-10T01:44:24.963Z,74.07
2018-02-10T01:44:56.571Z,74.45
2018-02-10T01:45:28.197Z,73.72
2018-02-10T01:45:59.813Z,77.25
2018-02-10T01:46:31.437Z,70.03
2018-02-10T01:47:03.068Z,76.70
2018-02-10T01:47:34.697Z,73.10
2018-02-10T01:48:06.308Z,79.87
2018-02-10T01:48:37.927Z,75.87
2018-02-10T01:49:09.561Z,82.62
2018-02-10T01:49:41.185Z,72.45
2018-02-10T01:50:21.084Z,74.40
2018-02-10T01:50:52.731Z,76.12
2018-02-10T01:51:24.343Z,82.35
2018-02-10T01:51:55.975Z,78.03
2018-02-10T01:52:27.587Z,70.05
2018-02-10T01:52:59.194Z,85.90
2018-02-10T01:53:30.831Z,86.55
2018-02-10T01:54:02.479Z,89.03
2018-02-10T01:54:34.129Z,80.03
2018-02-10T01:55:05.751Z,73.55
2018-02-10T01:55:37.356Z,74.78
2018-02-10T01:56:08.959Z,78.50
2018-02-10T01:56:40.608Z,77.10
2018-02-10T01:57:12.221Z,66.20
2018-02-10T01:57:43.836Z,77.90
2018-02-10T01:58:15.468Z,78.80
2018-02-10T01:58:47.109Z,79.10
2018-02-10T01:59:18.734Z,76.12
2018-02-10T01:59:50.348Z,75.85
2018-02-10T02:00:21.985Z,75.18
2018-02-10T02:00:53.635Z,79.30
2018-02-10T02:01:25.279Z,76.82
2018-02-10T02:01:56.898Z,82.75
2018-02-10T02:02:28.501Z,85.95
2018-02-10T02:03:00.129Z,74.93
2018-02-10T02:03:31.754Z,77.72
2018-02-10T02:04:04.479Z,82.20
2018-02-10T02:04:36.101Z,78.70
2018-02-10T02:05:07.704Z,82.10
2018-02-10T02:05:39.318Z,70.20
2018-02-10T02:06:10.954Z,80.72
2018-02-10T02:06:42.589Z,79.28
2018-02-10T02:07:14.246Z,77.72
2018-02-10T02:07:45.887Z,74.37
2018-02-10T02:08:17.511Z,75.22
2018-02-10T02:08:49.130Z,71.43
2018-02-10T02:09:20.735Z,78.12
2018-02-10T02:09:52.354Z,79.62
2018-02-10T02:10:23.977Z,69.15
2018-02-10T02:10:55.597Z,77.20
2018-02-10T02:11:27.223Z,75.40
2018-02-10T02:11:58.885Z,74.00
2018-02-10T02:12:30.493Z,85.82
2018-02-10T02:13:02.116Z,71.10
2018-02-10T02:13:33.731Z,77.30
2018-02-10T02:14:05.337Z,78.78
2018-02-10T02:14:36.944Z,73.97
2018-02-10T02:15:08.592Z,85.18
2018-02-10T02:15:55.130Z,82.20
2018-02-10T02:16:26.739Z,81.57
2018-02-10T02:16:58.385Z,72.28
2018-02-10T02:17:30.005Z,75.87
2018-02-10T02:18:01.623Z,73.95
2018-02-10T02:18:33.242Z,80.75
2018-02-10T02:19:04.867Z,69.93
2018-02-10T02:19:36.533Z,78.12
2018-02-10T02:20:08.174Z,79.70
2018-02-10T02:20:39.832Z,74.62
2018-02-10T02:21:11.469Z,74.32
2018-02-10T02:21:43.094Z,77.47
2018-02-10T02:22:14.750Z,78.93
2018-02-10T02:22:46.409Z,73.90
2018-02-10T02:23:18.023Z,80.72
2018-02-10T02:23:49.646Z,82.53
2018-02-10T02:24:21.277Z,73.78
2018-02-10T02:24:52.907Z,75.22
2018-02-10T02:25:24.523Z,72.60
2018-02-10T02:25:56.183Z,81.07
2018-02-10T02:26:27.764Z,75.57
2018-02-10T02:26:59.400Z,71.00
2018-02-10T02:27:31.016Z,72.62
2018-02-10T02:28:02.659Z,73.50
2018-02-10T02:28:34.300Z,80.10
2018-02-10T02:29:05.898Z,73.60
2018-02-10T02:29:37.512Z,73.12
2018-02-10T02:30:09.141Z,84.97
2018-02-10T02:30:40.753Z,74.72
2018-02-10T02:31:12.396Z,84.45
2018-02-10T02:31:43.990Z,83.47
2018-02-10T02:32:15.604Z,85.22
2018-02-10T02:32:47.211Z,77.75
2018-02-10T02:33:18.841Z,73.15
2018-02-10T02:33:50.479Z,74.62
2018-02-10T02:34:22.108Z,74.72
2018-02-10T02:34:53.772Z,71.05
2018-02-10T02:35:25.412Z,77.90
2018-02-10T02:35:57.040Z,73.75
2018-02-10T02:36:28.683Z,78.00
2018-02-10T02:37:00.291Z,85.15
2018-02-10T02:37:31.909Z,71.90
2018-02-10T02:38:03.541Z,78.43
2018-02-10T02:38:35.187Z,78.82
2018-02-10T02:39:06.807Z,70.54
2018-02-10T02:39:38.433Z,78.18
2018-02-10T02:40:10.068Z,76.45
2018-02-10T02:40:41.678Z,66.47
2018-02-10T02:41:13.283Z,66.32
2018-02-10T02:41:44.924Z,79.05
2018-02-10T02:42:16.544Z,72.85
2018-02-10T02:42:48.156Z,78.68
2018-02-10T02:43:19.783Z,73.43
2018-02-10T02:43:51.402Z,80.22
2018-02-10T02:44:23.002Z,78.78
2018-02-10T02:44:54.596Z,81.97
2018-02-10T02:45:26.210Z,75.78
2018-02-10T02:45:57.836Z,66.60
2018-02-10T02:46:29.445Z,81.05
2018-02-10T02:47:01.069Z,72.45
2018-02-10T02:47:32.704Z,73.70
2018-02-10T02:48:04.327Z,76.55
2018-02-10T02:48:35.950Z,85.80
2018-02-10T02:49:07.570Z,74.45
2018-02-10T02:49:39.177Z,77.80
2018-02-10T02:50:10.827Z,81.30
2018-02-10T02:50:42.456Z,73.20
2018-02-10T02:51:14.084Z,78.03
2018-02-10T02:51:45.719Z,66.62
2018-02-10T02:52:17.330Z,68.53
2018-02-10T02:52:48.943Z,79.15
2018-02-10T02:53:20.575Z,76.47
2018-02-10T02:53:52.202Z,74.32
2018-02-10T02:54:23.824Z,84.55
2018-02-10T02:54:55.468Z,72.47
2018-02-10T02:55:27.074Z,72.40
2018-02-10T02:55:58.686Z,67.85
2018-02-10T02:56:30.309Z,79.72
2018-02-10T02:57:01.933Z,65.75
2018-02-10T02:57:33.578Z,75.55
2018-02-10T02:58:05.213Z,71.10
2018-02-10T02:58:36.835Z,68.78
2018-02-10T02:59:08.431Z,84.60
2018-02-10T02:59:40.044Z,67.68
2018-02-10T03:00:11.668Z,73.25
2018-02-10T03:00:43.300Z,78.30
2018-02-10T03:01:14.936Z,74.05
2018-02-10T03:01:46.558Z,76.15
2018-02-10T03:02:18.191Z,71.97
2018-02-10T03:02:49.802Z,85.87
2018-02-10T03:03:21.432Z,73.28
2018-02-10T03:03:53.064Z,84.32
2018-02-10T03:04:24.673Z,67.32
2018-02-10T03:04:56.304Z,76.20
2018-02-10T03:05:27.912Z,78.97
2018-02-10T03:05:59.522Z,77.50
2018-02-10T03:06:31.176Z,79.28
2018-02-10T03:07:02.780Z,75.65
2018-02-10T03:07:34.398Z,79.60
2018-02-10T03:08:06.008Z,71.68
2018-02-10T03:08:37.640Z,72.90
2018-02-10T03:09:09.255Z,71.75
2018-02-10T03:09:40.878Z,78.55
2018-02-10T03:10:12.508Z,79.90
2018-02-10T03:10:44.136Z,71.25
2018-02-10T03:11:15.732Z,72.65
2018-02-10T03:11:47.364Z,75.43
2018-02-10T03:12:19.075Z,86.07
2018-02-10T03:12:50.698Z,79.70
2018-02-10T03:13:22.334Z,82.47
2018-02-10T03:13:53.978Z,70.37
2018-02-10T03:14:25.598Z,74.28
2018-02-10T03:14:57.226Z,70.50
2018-02-10T03:15:28.840Z,80.28
2018-02-10T03:16:00.442Z,69.90
2018-02-10T03:16:32.064Z,71.75
2018-02-10T03:17:03.692Z,68.72
2018-02-10T03:17:35.308Z,74.70
2018-02-10T03:18:06.926Z,73.03
2018-02-10T03:18:38.536Z,78.75
2018-02-10T03:19:10.184Z,76.45
2018-02-10T03:19:41.814Z,72.55
2018-02-10T03:20:13.424Z,75.00
2018-02-10T03:20:45.072Z,71.37
2018-02-10T03:21:16.717Z,75.70
2018-02-10T03:21:48.312Z,74.85
2018-02-10T03:22:19.918Z,72.20
2018-02-10T03:22:51.532Z,82.18
2018-02-10T03:23:23.170Z,75.37
2018-02-10T03:23:54.820Z,75.50
2018-02-10T03:24:26.444Z,77.72
2018-02-10T03:24:58.056Z,69.90
2018-02-10T03:25:29.684Z,73.10
2018-02-10T03:26:01.326Z,78.90
2018-02-10T03:26:32.974Z,79.15
2018-02-10T03:27:04.586Z,81.97
2018-02-10T03:27:36.212Z,69.35
2018-02-10T03:28:07.820Z,79.05
2018-02-10T03:28:39.448Z,73.70
2018-02-10T03:29:11.066Z,79.15
2018-02-10T03:29:42.680Z,72.82
2018-02-10T03:30:14.296Z,75.00
2018-02-10T03:30:45.916Z,67.65
2018-02-10T03:31:17.569Z,72.90
2018-02-10T03:31:49.175Z,70.03
2018-02-10T03:32:20.768Z,71.32
2018-02-10T03:32:52.382Z,73.50
2018-02-10T03:33:24.000Z,74.22
2018-02-10T03:33:55.640Z,75.43
2018-02-10T03:34:27.268Z,74.90
2018-02-10T03:34:58.886Z,74.15
2018-02-10T03:35:30.512Z,76.72
2018-02-10T03:36:02.202Z,78.47
2018-02-10T03:36:33.824Z,65.28
2018-02-10T03:37:05.442Z,67.32
2018-02-10T03:37:37.070Z,78.44
2018-02-10T03:38:08.696Z,65.68
2018-02-10T03:38:40.326Z,70.75
2018-02-10T03:39:11.942Z,62.53
2018-02-10T03:39:43.547Z,66.00
2018-02-10T03:40:15.183Z,77.68
2018-02-10T03:40:46.782Z,70.47
2018-02-10T03:41:18.402Z,73.25
2018-02-10T03:41:50.061Z,73.32
2018-02-10T03:42:21.731Z,70.35
2018-02-10T03:42:53.438Z,72.00
2018-02-10T03:43:25.192Z,76.40
2018-02-10T03:43:56.865Z,78.05
2018-02-10T03:44:28.567Z,71.72
2018-02-10T03:45:00.270Z,75.70
2018-02-10T03:45:31.892Z,79.85
2018-02-10T03:46:03.506Z,71.07
2018-02-10T03:46:35.125Z,79.47
2018-02-10T03:47:06.748Z,84.30
2018-02-10T03:47:38.356Z,73.50
2018-02-10T03:48:09.964Z,79.25
2018-02-10T03:48:41.572Z,73.53
2018-02-10T03:49:13.176Z,77.03
2018-02-10T03:49:44.786Z,79.15
2018-02-10T03:50:16.411Z,80.68
2018-02-10T03:50:48.050Z,80.10
2018-02-10T03:51:19.676Z,78.97
2018-02-10T03:51:51.284Z,74.55
2018-02-10T03:52:22.896Z,82.35
2018-02-10T03:52:54.508Z,86.25
2018-02-10T03:53:26.126Z,73.18
2018-02-10T03:53:57.739Z,78.55
2018-02-10T03:54:29.380Z,77.12
2018-02-10T03:55:00.978Z,79.82
2018-02-10T03:55:32.616Z,76.93
2018-02-10T03:56:04.220Z,72.87
2018-02-10T03:56:35.842Z,74.18
2018-02-10T03:57:07.440Z,81.95
2018-02-10T03:57:39.064Z,82.03
2018-02-10T03:58:10.678Z,77.35
2018-02-10T03:58:42.302Z,79.15
2018-02-10T03:59:13.924Z,73.55
2018-02-10T03:59:45.648Z,73.53
2018-02-10T04:00:17.300Z,65.07
2018-02-10T04:00:48.922Z,70.82
2018-02-10T04:01:20.510Z,75.22
2018-02-10T04:01:52.138Z,66.12
2018-02-10T04:02:23.751Z,73.20
2018-02-10T04:02:55.374Z,84.68
2018-02-10T04:03:26.972Z,72.22
2018-02-10T04:03:58.600Z,72.07
2018-02-10T04:04:30.236Z,73.90
2018-02-10T04:05:01.846Z,73.37
2018-02-10T04:05:33.452Z,75.82
2018-02-10T04:06:05.048Z,81.20
2018-02-10T04:06:36.686Z,75.45
2018-02-10T04:07:08.322Z,71.47
2018-02-10T04:07:39.944Z,81.12
2018-02-10T04:08:11.568Z,66.05
2018-02-10T04:08:43.183Z,76.05
2018-02-10T04:09:14.804Z,74.28
2018-02-10T04:09:46.412Z,75.68
2018-02-10T04:10:18.044Z,70.15
2018-02-10T04:10:49.670Z,74.12
2018-02-10T04:11:21.276Z,74.45
2018-02-10T04:11:52.880Z,74.93
2018-02-10T04:12:24.511Z,67.80
2018-02-10T04:12:56.126Z,76.05
2018-02-10T04:13:27.754Z,64.97
2018-02-10T04:13:59.376Z,72.00
2018-02-10T04:14:30.994Z,72.15
2018-02-10T04:15:02.652Z,76.72
2018-02-10T04:15:34.278Z,70.00
2018-02-10T04:16:05.913Z,70.93
2018-02-10T04:16:37.550Z,73.45
2018-02-10T04:17:09.168Z,70.35
2018-02-10T04:17:40.796Z,71.15
2018-02-10T04:18:12.424Z,67.37
2018-02-10T04:18:44.058Z,76.80
2018-02-10T04:19:15.662Z,74.37
2018-02-10T04:19:47.282Z,68.87
2018-02-10T04:20:18.899Z,78.82
2018-02-10T04:20:50.509Z,70.65
2018-02-10T04:21:22.116Z,70.10
2018-02-10T04:21:53.734Z,72.43
2018-02-10T04:22:25.360Z,68.07
2018-02-10T04:22:56.976Z,67.45
2018-02-10T04:23:28.590Z,70.20
2018-02-10T04:24:00.224Z,63.47
2018-02-10T04:24:31.810Z,73.25
2018-02-10T04:25:03.458Z,74.57
2018-02-10T04:25:35.094Z,68.40
2018-02-10T04:26:06.704Z,67.05
2018-02-10T04:26:38.328Z,69.40
2018-02-10T04:27:09.934Z,78.15
2018-02-10T04:27:41.548Z,68.70
2018-02-10T04:28:13.164Z,64.45
2018-02-10T04:28:44.800Z,68.22
2018-02-10T04:29:16.442Z,63.45
2018-02-10T04:29:48.060Z,66.55
2018-02-10T04:30:19.680Z,72.75
2018-02-10T04:30:51.279Z,64.45
2018-02-10T04:31:22.892Z,65.78
2018-02-10T04:31:54.492Z,63.35
2018-02-10T04:32:26.096Z,61.25
2018-02-10T04:32:57.704Z,71.28
2018-02-10T04:33:29.330Z,64.65
2018-02-10T04:34:00.940Z,64.50
2018-02-10T04:34:32.560Z,62.80
2018-02-10T04:35:04.194Z,65.12
2018-02-10T04:35:35.812Z,68.75
2018-02-10T04:36:07.444Z,62.35
2018-02-10T04:36:39.056Z,68.87
2018-02-10T04:37:10.684Z,72.32
2018-02-10T04:37:42.292Z,66.60
2018-02-10T04:38:13.924Z,65.45
2018-02-10T04:38:45.542Z,69.40
2018-02-10T04:39:17.160Z,65.22
2018-02-10T04:39:48.777Z,68.50
2018-02-10T04:40:20.392Z,71.53
2018-02-10T04:40:52.021Z,73.12
2018-02-10T04:41:23.648Z,68.50
2018-02-10T04:41:55.268Z,72.75
2018-02-10T04:42:26.872Z,69.68
2018-02-10T04:42:58.466Z,72.70
2018-02-10T04:43:30.066Z,61.47
2018-02-10T04:44:01.688Z,64.90
2018-02-10T04:44:33.296Z,79.45
2018-02-10T04:45:04.924Z,69.25
2018-02-10T04:45:36.552Z,71.95
2018-02-10T04:46:08.170Z,67.57
2018-02-10T04:46:39.794Z,67.47
2018-02-10T04:47:11.410Z,65.07
2018-02-10T04:47:43.026Z,67.30
2018-02-10T04:48:14.638Z,68.18
2018-02-10T04:48:46.234Z,68.50
2018-02-10T04:49:17.842Z,68.90
2018-02-10T04:49:49.458Z,70.05
2018-02-10T04:50:21.096Z,69.25
2018-02-10T04:50:52.702Z,68.05
2018-02-10T04:51:24.300Z,67.12
2018-02-10T04:51:55.922Z,71.25
2018-02-10T04:52:27.543Z,76.55
2018-02-10T04:52:59.174Z,63.97
2018-02-10T04:53:30.788Z,66.68
2018-02-10T04:54:02.411Z,72.03
2018-02-10T04:54:34.036Z,71.78
2018-02-10T04:55:05.650Z,74.82
2018-02-10T04:55:37.285Z,72.00
2018-02-10T04:56:08.924Z,66.97
2018-02-10T04:56:40.528Z,64.90
2018-02-10T04:57:12.140Z,67.62
2018-02-10T04:57:43.754Z,71.43
2018-02-10T04:58:15.396Z,71.00
2018-02-10T04:58:47.018Z,68.20
2018-02-10T04:59:18.638Z,78.50
2018-02-10T04:59:50.250Z,64.47
2018-02-10T05:00:21.862Z,65.53
2018-02-10T05:00:53.500Z,70.03
2018-02-10T05:01:25.174Z,75.57
2018-02-10T05:01:56.808Z,72.30
2018-02-10T05:02:28.417Z,67.53
2018-02-10T05:03:00.030Z,69.93
2018-02-10T05:03:31.646Z,67.97
2018-02-10T05:04:03.278Z,64.97
2018-02-10T05:04:34.884Z,67.72
2018-02-10T05:05:06.524Z,63.38
2018-02-10T05:05:38.154Z,64.60
2018-02-10T05:06:09.780Z,66.30
2018-02-10T05:06:41.414Z,65.12
2018-02-10T05:07:13.012Z,66.43
2018-02-10T05:07:44.625Z,54.60
2018-02-10T05:08:16.239Z,60.95
2018-02-10T05:08:47.867Z,63.45
2018-02-10T05:09:19.480Z,73.40
2018-02-10T05:09:51.101Z,61.90
2018-02-10T05:10:22.724Z,72.28
2018-02-10T05:10:54.328Z,67.75
2018-02-10T05:11:25.960Z,68.62
2018-02-10T05:11:57.569Z,69.47
2018-02-10T05:12:29.189Z,57.83
2018-02-10T05:13:00.811Z,64.35
2018-02-10T05:13:32.442Z,67.10
2018-02-10T05:14:04.082Z,61.30
2018-02-10T05:14:35.684Z,68.28
2018-02-10T05:15:07.313Z,64.32
2018-02-10T05:15:38.942Z,67.03
2018-02-10T05:16:10.544Z,63.47
2018-02-10T05:16:42.171Z,65.28
2018-02-10T05:17:13.790Z,76.47
2018-02-10T05:17:45.412Z,60.83
2018-02-10T05:18:17.004Z,65.03
2018-02-10T05:18:48.613Z,63.53
2018-02-10T05:19:20.230Z,63.75
2018-02-10T05:19:51.858Z,65.40
2018-02-10T05:20:23.476Z,62.40
2018-02-10T05:20:55.088Z,61.75
2018-02-10T05:21:26.717Z,63.83
2018-02-10T05:21:58.362Z,66.25
2018-02-10T05:22:29.984Z,64.90
2018-02-10T05:23:01.612Z,64.05
2018-02-10T05:23:33.250Z,61.22
2018-02-10T05:24:04.870Z,60.50
2018-02-10T05:24:36.479Z,61.37
2018-02-10T05:25:08.106Z,57.83
2018-02-10T05:25:39.748Z,61.03
2018-02-10T05:26:11.361Z,62.80
2018-02-10T05:26:43.004Z,63.72
2018-02-10T05:27:14.631Z,65.87
2018-02-10T05:27:46.253Z,65.20
2018-02-10T05:28:17.875Z,67.93
2018-02-10T05:28:49.488Z,68.87
2018-02-10T05:29:21.098Z,68.70
2018-02-10T05:29:52.706Z,62.58
2018-02-10T05:30:24.324Z,68.68
2018-02-10T05:30:55.944Z,59.88
2018-02-10T05:31:27.565Z,74.25
2018-02-10T05:32:59.420Z,67.22
2018-02-10T05:33:31.039Z,63.67
2018-02-10T05:34:02.669Z,65.20
2018-02-10T05:34:34.295Z,69.22
2018-02-10T05:35:05.905Z,66.93
2018-02-10T05:35:37.532Z,66.37
2018-02-10T05:36:09.156Z,63.25
2018-02-10T05:36:40.768Z,71.12
2018-02-10T05:37:12.371Z,66.82
2018-02-10T05:37:43.983Z,66.05
2018-02-10T05:38:15.616Z,67.57
2018-02-10T05:38:47.226Z,65.85
2018-02-10T05:39:18.857Z,67.50
2018-02-10T05:39:50.500Z,72.68
2018-02-10T05:40:22.124Z,69.03
2018-02-10T05:40:53.741Z,61.95
2018-02-10T05:41:25.356Z,65.70
2018-02-10T05:41:56.963Z,68.35
2018-02-10T05:42:28.639Z,64.53
2018-02-10T05:43:00.308Z,69.20
2018-02-10T05:43:31.892Z,75.47
2018-02-10T05:44:03.526Z,59.17
2018-02-10T05:44:35.145Z,70.43
2018-02-10T05:45:06.760Z,61.72
2018-02-10T05:45:38.386Z,70.53
2018-02-10T05:46:10.021Z,67.87
2018-02-10T05:46:41.638Z,66.50
2018-02-10T05:47:13.267Z,70.50
2018-02-10T05:47:44.899Z,65.82
2018-02-10T05:48:16.532Z,57.85
2018-02-10T05:48:48.157Z,64.53
2018-02-10T05:49:19.778Z,71.43
2018-02-10T05:49:51.384Z,65.87
2018-02-10T05:50:23.001Z,67.03
2018-02-10T05:50:54.622Z,66.22
2018-02-10T05:51:26.250Z,66.22
2018-02-10T05:51:57.864Z,70.45
2018-02-10T05:52:29.483Z,68.10
2018-02-10T05:53:01.098Z,66.30
2018-02-10T05:53:32.727Z,62.40
2018-02-10T05:54:04.361Z,64.80
2018-02-10T05:54:35.982Z,62.95
2018-02-10T05:55:07.588Z,63.80
2018-02-10T05:55:39.202Z,70.43
2018-02-10T05:56:10.817Z,62.70
2018-02-10T05:56:42.428Z,67.25
2018-02-10T05:57:14.037Z,68.80
2018-02-10T05:57:45.661Z,66.05
2018-02-10T05:58:17.278Z,63.53
2018-02-10T05:58:48.903Z,68.70
2018-02-10T05:59:20.539Z,69.37
2018-02-10T05:59:52.145Z,64.03
2018-02-10T06:00:23.758Z,69.12
2018-02-10T06:00:55.402Z,69.45
2018-02-10T06:01:27.049Z,64.43
2018-02-10T06:01:58.673Z,67.22
2018-02-10T06:02:30.313Z,67.80
2018-02-10T06:03:01.939Z,64.55
2018-02-10T06:03:33.543Z,62.40
2018-02-10T06:04:05.167Z,61.58
2018-02-10T06:04:36.803Z,58.60
2018-02-10T06:05:08.428Z,61.28
2018-02-10T06:05:40.052Z,63.53
2018-02-10T06:06:11.673Z,62.20
2018-02-10T06:06:43.306Z,69.87
2018-02-10T06:07:14.937Z,66.32
2018-02-10T06:07:46.560Z,59.63
2018-02-10T06:08:18.166Z,70.50
2018-02-10T06:08:49.788Z,66.57
2018-02-10T06:09:21.428Z,66.18
2018-02-10T06:09:53.060Z,66.60
2018-02-10T06:10:24.671Z,60.30
2018-02-10T06:10:56.287Z,67.53
2018-02-10T06:11:27.917Z,59.65
2018-02-10T06:11:59.533Z,69.35
2018-02-10T06:12:31.144Z,73.70
2018-02-10T06:13:02.756Z,66.70
2018-02-10T06:13:34.365Z,71.05
2018-02-10T06:14:05.985Z,64.22
2018-02-10T06:14:37.615Z,65.57
2018-02-10T06:15:09.257Z,61.65
2018-02-10T06:15:40.852Z,63.03
2018-02-10T06:16:12.488Z,65.78
2018-02-10T06:16:44.115Z,65.50
2018-02-10T06:17:15.722Z,61.75
2018-02-10T06:17:47.343Z,70.00
2018-02-10T06:18:18.966Z,64.00
2018-02-10T06:18:50.568Z,59.40
2018-02-10T06:19:22.183Z,65.37
2018-02-10T06:19:53.831Z,64.60
2018-02-10T06:20:25.450Z,69.10
2018-02-10T06:20:57.059Z,65.32
2018-02-10T06:21:28.689Z,64.72
2018-02-10T06:22:00.297Z,70.95
2018-02-10T06:22:31.914Z,64.72
2018-02-10T06:23:03.534Z,66.40
2018-02-10T06:23:35.173Z,67.90
2018-02-10T06:24:06.777Z,65.93
2018-02-10T06:24:38.406Z,66.55
2018-02-10T06:25:10.031Z,67.18
2018-02-10T06:25:41.669Z,65.94
2018-02-10T06:26:13.278Z,63.05
2018-02-10T06:26:44.900Z,62.35
2018-02-10T06:27:16.517Z,69.60
2018-02-10T06:27:48.143Z,68.97
2018-02-10T06:28:19.767Z,63.20
2018-02-10T06:28:51.371Z,65.47
2018-02-10T06:29:22.979Z,65.80
2018-02-10T06:29:54.594Z,64.53
2018-02-10T06:30:26.204Z,65.28
2018-02-10T06:30:57.840Z,61.10
2018-02-10T06:31:29.469Z,64.50
2018-02-10T06:32:01.093Z,62.03
2018-02-10T06:32:32.723Z,60.30
2018-02-10T06:33:04.339Z,61.88
2018-02-10T06:33:35.942Z,61.75
2018-02-10T06:34:07.563Z,66.22
2018-02-10T06:34:39.152Z,64.95
2018-02-10T06:35:10.767Z,68.35
2018-02-10T06:35:42.387Z,66.45
2018-02-10T06:36:14.010Z,60.88
2018-02-10T06:36:45.641Z,64.75
2018-02-10T06:37:17.281Z,61.95
2018-02-10T06:37:48.905Z,68.40
2018-02-10T06:38:20.513Z,77.50
2018-02-10T06:38:52.124Z,71.35
2018-02-10T06:39:23.745Z,71.47
2018-02-10T06:39:55.363Z,67.12
2018-02-10T06:40:26.986Z,66.30
2018-02-10T06:40:58.609Z,63.22
2018-02-10T06:41:30.219Z,64.07
2018-02-10T06:42:01.837Z,68.65
2018-02-10T06:42:33.469Z,74.07
2018-02-10T06:43:05.067Z,63.00
2018-02-10T06:43:36.667Z,69.82
2018-02-10T06:44:08.289Z,64.18
2018-02-10T06:44:39.923Z,65.87
2018-02-10T06:45:11.535Z,67.28
2018-02-10T06:45:43.161Z,66.45
2018-02-10T06:46:14.772Z,58.78
2018-02-10T06:46:46.384Z,63.80
2018-02-10T06:47:18.013Z,69.68
2018-02-10T06:47:49.653Z,62.85
2018-02-10T06:48:21.265Z,65.53